sensor_id;sensor_type;location;lat;lon;timestamp;P1;durP1;ratioP1;P2;durP2;ratioP2
80748;SDS011;70145;53.746;9.970;2023-12-14T00:01:11;0.95;;;0.57;;
80748;SDS011;70145;53.746;9.970;2023-12-14T00:03:38;4.47;;;1.20;;
80748;SDS011;70145;53.746;9.970;2023-12-14T00:06:03;4.15;;;2.10;;
80748;SDS011;70145;53.746;9.970;2023-12-14T00:08:29;2.00;;;0.93;;
80748;SDS011;70145;53.746;9.970;2023-12-14T00:10:54;3.40;;;1.03;;
80748;SDS011;70145;53.746;9.970;2023-12-14T00:13:19;3.22;;;0.80;;
80748;SDS011;70145;53.746;9.970;2023-12-14T00:15:45;2.33;;;1.23;;
80748;SDS011;70145;53.746;9.970;2023-12-14T00:18:10;3.03;;;1.23;;
80748;SDS011;70145;53.746;9.970;2023-12-14T00:20:35;4.43;;;1.98;;
80748;SDS011;70145;53.746;9.970;2023-12-14T00:23:01;1.60;;;0.97;;
80748;SDS011;70145;53.746;9.970;2023-12-14T00:25:26;1.70;;;1.20;;
80748;SDS011;70145;53.746;9.970;2023-12-14T00:27:51;3.00;;;0.95;;
80748;SDS011;70145;53.746;9.970;2023-12-14T00:30:16;1.53;;;0.87;;
80748;SDS011;70145;53.746;9.970;2023-12-14T00:32:42;2.90;;;0.98;;
80748;SDS011;70145;53.746;9.970;2023-12-14T00:35:07;4.27;;;1.10;;
80748;SDS011;70145;53.746;9.970;2023-12-14T00:37:32;2.95;;;1.70;;
80748;SDS011;70145;53.746;9.970;2023-12-14T00:39:58;2.27;;;1.00;;
80748;SDS011;70145;53.746;9.970;2023-12-14T00:42:23;3.00;;;1.60;;
80748;SDS011;70145;53.746;9.970;2023-12-14T00:44:48;2.50;;;1.20;;
80748;SDS011;70145;53.746;9.970;2023-12-14T00:47:14;3.15;;;1.00;;
80748;SDS011;70145;53.746;9.970;2023-12-14T00:49:39;1.77;;;1.15;;
80748;SDS011;70145;53.746;9.970;2023-12-14T00:52:04;3.40;;;0.97;;
80748;SDS011;70145;53.746;9.970;2023-12-14T00:54:30;3.35;;;1.30;;
80748;SDS011;70145;53.746;9.970;2023-12-14T00:56:55;3.10;;;1.00;;
80748;SDS011;70145;53.746;9.970;2023-12-14T00:59:21;2.87;;;1.40;;
80748;SDS011;70145;53.746;9.970;2023-12-14T01:01:46;2.27;;;1.00;;
80748;SDS011;70145;53.746;9.970;2023-12-14T01:04:12;7.80;;;1.35;;
80748;SDS011;70145;53.746;9.970;2023-12-14T01:06:37;2.97;;;0.93;;
80748;SDS011;70145;53.746;9.970;2023-12-14T01:09:02;3.97;;;1.17;;
80748;SDS011;70145;53.746;9.970;2023-12-14T01:11:27;3.00;;;1.08;;
80748;SDS011;70145;53.746;9.970;2023-12-14T01:13:53;3.28;;;1.30;;
80748;SDS011;70145;53.746;9.970;2023-12-14T01:16:18;3.93;;;1.03;;
80748;SDS011;70145;53.746;9.970;2023-12-14T01:18:43;3.33;;;1.17;;
80748;SDS011;70145;53.746;9.970;2023-12-14T01:21:09;3.07;;;1.53;;
80748;SDS011;70145;53.746;9.970;2023-12-14T01:23:34;2.83;;;0.90;;
80748;SDS011;70145;53.746;9.970;2023-12-14T01:25:59;1.87;;;1.00;;
80748;SDS011;70145;53.746;9.970;2023-12-14T01:28:24;1.83;;;1.00;;
80748;SDS011;70145;53.746;9.970;2023-12-14T01:30:50;3.00;;;1.00;;
80748;SDS011;70145;53.746;9.970;2023-12-14T01:33:15;1.40;;;0.90;;
80748;SDS011;70145;53.746;9.970;2023-12-14T01:35:40;1.42;;;0.63;;
80748;SDS011;70145;53.746;9.970;2023-12-14T01:38:06;2.50;;;1.20;;
80748;SDS011;70145;53.746;9.970;2023-12-14T01:40:31;2.83;;;0.90;;
80748;SDS011;70145;53.746;9.970;2023-12-14T01:43:09;4.20;;;1.17;;
80748;SDS011;70145;53.746;9.970;2023-12-14T01:45:37;1.85;;;1.05;;
80748;SDS011;70145;53.746;9.970;2023-12-14T01:48:04;2.55;;;0.70;;
80748;SDS011;70145;53.746;9.970;2023-12-14T01:50:29;4.00;;;1.10;;
80748;SDS011;70145;53.746;9.970;2023-12-14T01:52:55;2.78;;;1.40;;
80748;SDS011;70145;53.746;9.970;2023-12-14T01:55:20;2.40;;;0.90;;
80748;SDS011;70145;53.746;9.970;2023-12-14T01:57:45;1.73;;;0.70;;
80748;SDS011;70145;53.746;9.970;2023-12-14T02:00:13;3.13;;;1.10;;
80748;SDS011;70145;53.746;9.970;2023-12-14T02:03:02;3.10;;;1.05;;
80748;SDS011;70145;53.746;9.970;2023-12-14T02:05:27;2.43;;;0.83;;
80748;SDS011;70145;53.746;9.970;2023-12-14T02:07:53;3.63;;;1.20;;
80748;SDS011;70145;53.746;9.970;2023-12-14T02:10:18;4.10;;;1.33;;
80748;SDS011;70145;53.746;9.970;2023-12-14T02:12:43;2.80;;;0.93;;
80748;SDS011;70145;53.746;9.970;2023-12-14T02:15:09;2.97;;;1.10;;
80748;SDS011;70145;53.746;9.970;2023-12-14T02:17:34;2.25;;;1.02;;
80748;SDS011;70145;53.746;9.970;2023-12-14T02:19:59;2.83;;;1.07;;
80748;SDS011;70145;53.746;9.970;2023-12-14T02:22:25;2.10;;;1.27;;
80748;SDS011;70145;53.746;9.970;2023-12-14T02:24:51;3.83;;;1.33;;
80748;SDS011;70145;53.746;9.970;2023-12-14T02:27:16;2.20;;;1.30;;
80748;SDS011;70145;53.746;9.970;2023-12-14T02:29:42;1.85;;;0.80;;
80748;SDS011;70145;53.746;9.970;2023-12-14T02:32:07;3.28;;;1.02;;
80748;SDS011;70145;53.746;9.970;2023-12-14T02:34:33;3.13;;;1.63;;
80748;SDS011;70145;53.746;9.970;2023-12-14T02:36:58;2.10;;;1.00;;
80748;SDS011;70145;53.746;9.970;2023-12-14T02:39:24;2.53;;;1.30;;
80748;SDS011;70145;53.746;9.970;2023-12-14T02:41:49;3.30;;;1.23;;
80748;SDS011;70145;53.746;9.970;2023-12-14T02:44:14;2.05;;;1.15;;
80748;SDS011;70145;53.746;9.970;2023-12-14T02:46:39;4.07;;;1.23;;
80748;SDS011;70145;53.746;9.970;2023-12-14T02:49:05;2.45;;;1.27;;
80748;SDS011;70145;53.746;9.970;2023-12-14T02:51:30;3.30;;;1.53;;
80748;SDS011;70145;53.746;9.970;2023-12-14T02:53:55;3.60;;;1.23;;
80748;SDS011;70145;53.746;9.970;2023-12-14T02:56:22;3.90;;;1.42;;
80748;SDS011;70145;53.746;9.970;2023-12-14T02:58:47;5.78;;;1.23;;
80748;SDS011;70145;53.746;9.970;2023-12-14T03:01:18;4.20;;;1.65;;
80748;SDS011;70145;53.746;9.970;2023-12-14T03:03:44;5.80;;;1.50;;
80748;SDS011;70145;53.746;9.970;2023-12-14T03:06:09;2.83;;;0.97;;
80748;SDS011;70145;53.746;9.970;2023-12-14T03:08:34;4.37;;;1.77;;
80748;SDS011;70145;53.746;9.970;2023-12-14T03:10:59;4.30;;;1.33;;
80748;SDS011;70145;53.746;9.970;2023-12-14T03:13:25;4.68;;;1.23;;
80748;SDS011;70145;53.746;9.970;2023-12-14T03:15:50;4.13;;;1.40;;
80748;SDS011;70145;53.746;9.970;2023-12-14T03:18:16;3.75;;;1.50;;
80748;SDS011;70145;53.746;9.970;2023-12-14T03:20:41;3.75;;;1.52;;
80748;SDS011;70145;53.746;9.970;2023-12-14T03:23:06;4.05;;;1.10;;
80748;SDS011;70145;53.746;9.970;2023-12-14T03:25:32;3.90;;;1.13;;
80748;SDS011;70145;53.746;9.970;2023-12-14T03:27:57;4.93;;;1.37;;
80748;SDS011;70145;53.746;9.970;2023-12-14T03:30:22;4.80;;;1.30;;
80748;SDS011;70145;53.746;9.970;2023-12-14T03:32:47;4.40;;;1.03;;
80748;SDS011;70145;53.746;9.970;2023-12-14T03:35:13;3.00;;;1.00;;
80748;SDS011;70145;53.746;9.970;2023-12-14T03:37:38;2.88;;;1.33;;
80748;SDS011;70145;53.746;9.970;2023-12-14T03:40:04;2.97;;;1.20;;
80748;SDS011;70145;53.746;9.970;2023-12-14T03:42:30;3.67;;;1.50;;
80748;SDS011;70145;53.746;9.970;2023-12-14T03:44:55;5.10;;;2.08;;
80748;SDS011;70145;53.746;9.970;2023-12-14T03:47:21;3.30;;;1.50;;
80748;SDS011;70145;53.746;9.970;2023-12-14T03:49:46;3.53;;;1.58;;
80748;SDS011;70145;53.746;9.970;2023-12-14T03:52:11;3.13;;;1.05;;
80748;SDS011;70145;53.746;9.970;2023-12-14T03:54:37;2.20;;;1.17;;
80748;SDS011;70145;53.746;9.970;2023-12-14T03:57:02;2.73;;;1.40;;
80748;SDS011;70145;53.746;9.970;2023-12-14T03:59:27;3.50;;;1.77;;
80748;SDS011;70145;53.746;9.970;2023-12-14T04:01:52;2.70;;;1.23;;
80748;SDS011;70145;53.746;9.970;2023-12-14T04:04:18;2.90;;;1.33;;
80748;SDS011;70145;53.746;9.970;2023-12-14T04:06:43;5.53;;;1.50;;
80748;SDS011;70145;53.746;9.970;2023-12-14T04:09:09;4.72;;;1.60;;
80748;SDS011;70145;53.746;9.970;2023-12-14T04:11:35;3.17;;;1.50;;
80748;SDS011;70145;53.746;9.970;2023-12-14T04:14:00;5.53;;;1.83;;
80748;SDS011;70145;53.746;9.970;2023-12-14T04:16:26;2.80;;;1.67;;
80748;SDS011;70145;53.746;9.970;2023-12-14T04:18:51;4.57;;;2.03;;
80748;SDS011;70145;53.746;9.970;2023-12-14T04:21:16;5.23;;;1.93;;
80748;SDS011;70145;53.746;9.970;2023-12-14T04:23:41;3.43;;;2.20;;
80748;SDS011;70145;53.746;9.970;2023-12-14T04:26:07;3.70;;;1.73;;
80748;SDS011;70145;53.746;9.970;2023-12-14T04:28:34;3.30;;;1.48;;
80748;SDS011;70145;53.746;9.970;2023-12-14T04:31:00;4.70;;;1.80;;
80748;SDS011;70145;53.746;9.970;2023-12-14T04:33:25;5.40;;;1.53;;
80748;SDS011;70145;53.746;9.970;2023-12-14T04:35:50;3.93;;;2.00;;
80748;SDS011;70145;53.746;9.970;2023-12-14T04:38:15;4.93;;;1.70;;
80748;SDS011;70145;53.746;9.970;2023-12-14T04:40:41;4.72;;;2.00;;
80748;SDS011;70145;53.746;9.970;2023-12-14T04:43:06;4.60;;;1.80;;
80748;SDS011;70145;53.746;9.970;2023-12-14T04:45:32;5.38;;;2.13;;
80748;SDS011;70145;53.746;9.970;2023-12-14T04:47:57;5.35;;;2.40;;
80748;SDS011;70145;53.746;9.970;2023-12-14T04:50:23;4.05;;;2.05;;
80748;SDS011;70145;53.746;9.970;2023-12-14T04:52:48;6.77;;;2.10;;
80748;SDS011;70145;53.746;9.970;2023-12-14T04:55:13;5.47;;;2.30;;
80748;SDS011;70145;53.746;9.970;2023-12-14T04:57:39;3.97;;;2.00;;
80748;SDS011;70145;53.746;9.970;2023-12-14T05:00:04;3.90;;;2.00;;
80748;SDS011;70145;53.746;9.970;2023-12-14T05:02:31;4.03;;;1.85;;
80748;SDS011;70145;53.746;9.970;2023-12-14T05:04:57;3.75;;;1.70;;
80748;SDS011;70145;53.746;9.970;2023-12-14T05:07:22;5.20;;;2.00;;
80748;SDS011;70145;53.746;9.970;2023-12-14T05:09:48;6.78;;;2.65;;
80748;SDS011;70145;53.746;9.970;2023-12-14T05:12:14;3.33;;;1.87;;
80748;SDS011;70145;53.746;9.970;2023-12-14T05:14:39;7.75;;;2.72;;
80748;SDS011;70145;53.746;9.970;2023-12-14T05:17:05;3.03;;;1.63;;
80748;SDS011;70145;53.746;9.970;2023-12-14T05:19:31;6.47;;;1.70;;
80748;SDS011;70145;53.746;9.970;2023-12-14T05:21:58;4.68;;;2.15;;
80748;SDS011;70145;53.746;9.970;2023-12-14T05:24:24;5.60;;;2.40;;
80748;SDS011;70145;53.746;9.970;2023-12-14T05:26:50;5.32;;;2.10;;
80748;SDS011;70145;53.746;9.970;2023-12-14T05:29:15;4.72;;;2.47;;
80748;SDS011;70145;53.746;9.970;2023-12-14T05:31:42;4.03;;;1.83;;
80748;SDS011;70145;53.746;9.970;2023-12-14T05:34:07;5.38;;;1.70;;
80748;SDS011;70145;53.746;9.970;2023-12-14T05:36:33;4.32;;;1.80;;
80748;SDS011;70145;53.746;9.970;2023-12-14T05:38:58;6.43;;;2.25;;
80748;SDS011;70145;53.746;9.970;2023-12-14T05:41:23;4.60;;;1.97;;
80748;SDS011;70145;53.746;9.970;2023-12-14T05:43:48;7.10;;;2.20;;
80748;SDS011;70145;53.746;9.970;2023-12-14T05:46:23;3.23;;;1.63;;
80748;SDS011;70145;53.746;9.970;2023-12-14T05:48:49;3.35;;;1.75;;
80748;SDS011;70145;53.746;9.970;2023-12-14T05:51:30;4.88;;;1.88;;
80748;SDS011;70145;53.746;9.970;2023-12-14T05:53:57;5.80;;;2.00;;
80748;SDS011;70145;53.746;9.970;2023-12-14T05:56:22;5.40;;;2.15;;
80748;SDS011;70145;53.746;9.970;2023-12-14T05:58:48;5.70;;;2.10;;
80748;SDS011;70145;53.746;9.970;2023-12-14T06:01:14;7.07;;;2.47;;
80748;SDS011;70145;53.746;9.970;2023-12-14T06:03:41;2.97;;;1.73;;
80748;SDS011;70145;53.746;9.970;2023-12-14T06:06:07;4.43;;;2.00;;
80748;SDS011;70145;53.746;9.970;2023-12-14T06:08:32;3.85;;;1.77;;
80748;SDS011;70145;53.746;9.970;2023-12-14T06:10:57;4.78;;;1.85;;
80748;SDS011;70145;53.746;9.970;2023-12-14T06:13:23;5.30;;;2.83;;
80748;SDS011;70145;53.746;9.970;2023-12-14T06:15:48;3.47;;;2.00;;
80748;SDS011;70145;53.746;9.970;2023-12-14T06:18:13;3.80;;;1.53;;
80748;SDS011;70145;53.746;9.970;2023-12-14T06:20:40;5.95;;;2.20;;
80748;SDS011;70145;53.746;9.970;2023-12-14T06:23:05;4.60;;;2.13;;
80748;SDS011;70145;53.746;9.970;2023-12-14T06:25:31;3.22;;;1.73;;
80748;SDS011;70145;53.746;9.970;2023-12-14T06:27:56;4.10;;;2.00;;
80748;SDS011;70145;53.746;9.970;2023-12-14T06:30:22;6.30;;;2.28;;
80748;SDS011;70145;53.746;9.970;2023-12-14T06:32:47;4.78;;;2.42;;
80748;SDS011;70145;53.746;9.970;2023-12-14T06:35:13;4.10;;;2.07;;
80748;SDS011;70145;53.746;9.970;2023-12-14T06:37:38;4.53;;;2.67;;
80748;SDS011;70145;53.746;9.970;2023-12-14T06:40:03;6.60;;;2.67;;
80748;SDS011;70145;53.746;9.970;2023-12-14T06:42:29;6.53;;;2.78;;
80748;SDS011;70145;53.746;9.970;2023-12-14T06:44:55;7.10;;;2.55;;
80748;SDS011;70145;53.746;9.970;2023-12-14T06:47:21;6.43;;;3.40;;
80748;SDS011;70145;53.746;9.970;2023-12-14T06:49:46;8.20;;;3.37;;
80748;SDS011;70145;53.746;9.970;2023-12-14T06:52:11;3.90;;;2.80;;
80748;SDS011;70145;53.746;9.970;2023-12-14T06:54:36;5.43;;;2.23;;
80748;SDS011;70145;53.746;9.970;2023-12-14T06:57:02;5.10;;;1.97;;
80748;SDS011;70145;53.746;9.970;2023-12-14T06:59:27;7.20;;;3.33;;
80748;SDS011;70145;53.746;9.970;2023-12-14T07:01:53;6.15;;;2.88;;
80748;SDS011;70145;53.746;9.970;2023-12-14T07:04:18;6.20;;;2.90;;
80748;SDS011;70145;53.746;9.970;2023-12-14T07:06:55;3.95;;;2.50;;
80748;SDS011;70145;53.746;9.970;2023-12-14T07:09:20;6.88;;;2.33;;
80748;SDS011;70145;53.746;9.970;2023-12-14T07:11:45;4.43;;;2.20;;
80748;SDS011;70145;53.746;9.970;2023-12-14T07:14:11;3.95;;;2.60;;
80748;SDS011;70145;53.746;9.970;2023-12-14T07:16:37;4.20;;;2.70;;
80748;SDS011;70145;53.746;9.970;2023-12-14T07:19:03;6.72;;;3.00;;
80748;SDS011;70145;53.746;9.970;2023-12-14T07:21:28;6.80;;;3.03;;
80748;SDS011;70145;53.746;9.970;2023-12-14T07:23:53;5.03;;;2.60;;
80748;SDS011;70145;53.746;9.970;2023-12-14T07:26:18;5.05;;;2.58;;
80748;SDS011;70145;53.746;9.970;2023-12-14T07:28:44;4.88;;;2.60;;
80748;SDS011;70145;53.746;9.970;2023-12-14T07:31:09;7.28;;;2.90;;
80748;SDS011;70145;53.746;9.970;2023-12-14T07:33:35;6.85;;;2.95;;
80748;SDS011;70145;53.746;9.970;2023-12-14T07:36:00;6.68;;;2.88;;
80748;SDS011;70145;53.746;9.970;2023-12-14T07:38:26;6.18;;;2.40;;
80748;SDS011;70145;53.746;9.970;2023-12-14T07:40:51;3.43;;;2.40;;
80748;SDS011;70145;53.746;9.970;2023-12-14T07:43:17;6.13;;;2.33;;
80748;SDS011;70145;53.746;9.970;2023-12-14T07:45:42;4.25;;;2.22;;
80748;SDS011;70145;53.746;9.970;2023-12-14T07:48:08;4.38;;;2.60;;
80748;SDS011;70145;53.746;9.970;2023-12-14T07:50:33;10.13;;;2.63;;
80748;SDS011;70145;53.746;9.970;2023-12-14T07:52:58;4.03;;;2.50;;
80748;SDS011;70145;53.746;9.970;2023-12-14T07:55:24;3.87;;;2.50;;
80748;SDS011;70145;53.746;9.970;2023-12-14T07:57:49;5.87;;;2.53;;
80748;SDS011;70145;53.746;9.970;2023-12-14T08:00:15;4.20;;;2.25;;
80748;SDS011;70145;53.746;9.970;2023-12-14T08:02:41;7.13;;;2.83;;
80748;SDS011;70145;53.746;9.970;2023-12-14T08:05:07;4.97;;;2.10;;
80748;SDS011;70145;53.746;9.970;2023-12-14T08:07:34;5.68;;;2.05;;
80748;SDS011;70145;53.746;9.970;2023-12-14T08:09:59;4.37;;;2.70;;
80748;SDS011;70145;53.746;9.970;2023-12-14T08:12:25;3.72;;;2.28;;
80748;SDS011;70145;53.746;9.970;2023-12-14T08:14:50;4.38;;;2.30;;
80748;SDS011;70145;53.746;9.970;2023-12-14T08:17:16;4.45;;;2.28;;
80748;SDS011;70145;53.746;9.970;2023-12-14T08:19:42;4.68;;;2.40;;
80748;SDS011;70145;53.746;9.970;2023-12-14T08:22:08;4.10;;;2.50;;
80748;SDS011;70145;53.746;9.970;2023-12-14T08:24:36;5.88;;;2.47;;
80748;SDS011;70145;53.746;9.970;2023-12-14T08:27:02;6.55;;;2.65;;
80748;SDS011;70145;53.746;9.970;2023-12-14T08:29:28;3.53;;;2.28;;
80748;SDS011;70145;53.746;9.970;2023-12-14T08:31:53;4.68;;;2.63;;
80748;SDS011;70145;53.746;9.970;2023-12-14T08:34:22;5.97;;;2.13;;
80748;SDS011;70145;53.746;9.970;2023-12-14T08:36:47;4.40;;;2.20;;
80748;SDS011;70145;53.746;9.970;2023-12-14T08:39:13;3.60;;;2.00;;
80748;SDS011;70145;53.746;9.970;2023-12-14T08:41:38;5.50;;;2.45;;
80748;SDS011;70145;53.746;9.970;2023-12-14T08:44:03;3.03;;;1.73;;
80748;SDS011;70145;53.746;9.970;2023-12-14T08:46:29;3.40;;;1.83;;
80748;SDS011;70145;53.746;9.970;2023-12-14T08:49:03;4.30;;;2.20;;
80748;SDS011;70145;53.746;9.970;2023-12-14T08:51:28;4.20;;;1.70;;
80748;SDS011;70145;53.746;9.970;2023-12-14T08:53:55;4.00;;;2.55;;
80748;SDS011;70145;53.746;9.970;2023-12-14T08:56:20;4.13;;;2.07;;
80748;SDS011;70145;53.746;9.970;2023-12-14T08:58:46;4.60;;;1.92;;
80748;SDS011;70145;53.746;9.970;2023-12-14T09:01:11;3.38;;;1.92;;
80748;SDS011;70145;53.746;9.970;2023-12-14T09:03:36;4.90;;;2.15;;
80748;SDS011;70145;53.746;9.970;2023-12-14T09:06:01;3.20;;;1.80;;
80748;SDS011;70145;53.746;9.970;2023-12-14T09:08:30;3.80;;;2.15;;
80748;SDS011;70145;53.746;9.970;2023-12-14T09:10:55;4.00;;;2.08;;
80748;SDS011;70145;53.746;9.970;2023-12-14T09:13:21;3.50;;;2.27;;
80748;SDS011;70145;53.746;9.970;2023-12-14T09:15:46;3.67;;;1.93;;
80748;SDS011;70145;53.746;9.970;2023-12-14T09:18:11;4.07;;;2.60;;
80748;SDS011;70145;53.746;9.970;2023-12-14T09:20:36;4.57;;;2.58;;
80748;SDS011;70145;53.746;9.970;2023-12-14T09:23:02;4.63;;;1.80;;
80748;SDS011;70145;53.746;9.970;2023-12-14T09:25:28;2.28;;;1.52;;
80748;SDS011;70145;53.746;9.970;2023-12-14T09:27:53;3.17;;;2.23;;
80748;SDS011;70145;53.746;9.970;2023-12-14T09:30:18;3.90;;;2.17;;
80748;SDS011;70145;53.746;9.970;2023-12-14T09:32:44;6.18;;;2.42;;
80748;SDS011;70145;53.746;9.970;2023-12-14T09:35:09;5.63;;;2.20;;
80748;SDS011;70145;53.746;9.970;2023-12-14T09:37:34;5.57;;;2.45;;
80748;SDS011;70145;53.746;9.970;2023-12-14T09:40:00;4.60;;;1.75;;
80748;SDS011;70145;53.746;9.970;2023-12-14T09:42:26;4.18;;;1.98;;
80748;SDS011;70145;53.746;9.970;2023-12-14T09:44:52;3.72;;;2.13;;
80748;SDS011;70145;53.746;9.970;2023-12-14T09:47:17;3.78;;;1.80;;
80748;SDS011;70145;53.746;9.970;2023-12-14T09:49:43;4.77;;;2.60;;
80748;SDS011;70145;53.746;9.970;2023-12-14T09:52:10;4.97;;;2.00;;
80748;SDS011;70145;53.746;9.970;2023-12-14T09:54:35;5.27;;;2.33;;
80748;SDS011;70145;53.746;9.970;2023-12-14T09:57:00;5.28;;;2.25;;
80748;SDS011;70145;53.746;9.970;2023-12-14T09:59:26;4.28;;;2.30;;
80748;SDS011;70145;53.746;9.970;2023-12-14T10:01:51;3.80;;;2.20;;
80748;SDS011;70145;53.746;9.970;2023-12-14T10:04:18;3.83;;;2.20;;
80748;SDS011;70145;53.746;9.970;2023-12-14T10:06:44;3.00;;;1.77;;
80748;SDS011;70145;53.746;9.970;2023-12-14T10:09:11;4.95;;;2.03;;
80748;SDS011;70145;53.746;9.970;2023-12-14T10:11:44;5.28;;;2.53;;
80748;SDS011;70145;53.746;9.970;2023-12-14T10:14:19;3.97;;;2.20;;
80748;SDS011;70145;53.746;9.970;2023-12-14T10:16:49;4.72;;;2.42;;
80748;SDS011;70145;53.746;9.970;2023-12-14T10:19:16;2.65;;;2.03;;
80748;SDS011;70145;53.746;9.970;2023-12-14T10:21:42;5.35;;;2.42;;
80748;SDS011;70145;53.746;9.970;2023-12-14T10:24:08;5.67;;;2.83;;
80748;SDS011;70145;53.746;9.970;2023-12-14T10:26:33;4.75;;;2.08;;
80748;SDS011;70145;53.746;9.970;2023-12-14T10:28:58;5.37;;;2.83;;
80748;SDS011;70145;53.746;9.970;2023-12-14T10:31:24;4.07;;;2.27;;
80748;SDS011;70145;53.746;9.970;2023-12-14T10:33:51;4.40;;;1.85;;
80748;SDS011;70145;53.746;9.970;2023-12-14T10:36:20;3.15;;;2.15;;
80748;SDS011;70145;53.746;9.970;2023-12-14T10:38:50;4.03;;;2.15;;
80748;SDS011;70145;53.746;9.970;2023-12-14T10:41:17;4.43;;;1.95;;
80748;SDS011;70145;53.746;9.970;2023-12-14T10:43:43;5.25;;;2.85;;
80748;SDS011;70145;53.746;9.970;2023-12-14T10:46:09;5.07;;;2.38;;
80748;SDS011;70145;53.746;9.970;2023-12-14T10:48:35;3.78;;;2.10;;
80748;SDS011;70145;53.746;9.970;2023-12-14T10:51:02;4.18;;;2.50;;
80748;SDS011;70145;53.746;9.970;2023-12-14T10:53:28;4.15;;;2.38;;
80748;SDS011;70145;53.746;9.970;2023-12-14T10:55:54;4.30;;;2.30;;
80748;SDS011;70145;53.746;9.970;2023-12-14T10:58:23;4.03;;;2.30;;
80748;SDS011;70145;53.746;9.970;2023-12-14T11:01:07;2.30;;;1.80;;
80748;SDS011;70145;53.746;9.970;2023-12-14T11:03:33;3.25;;;2.22;;
80748;SDS011;70145;53.746;9.970;2023-12-14T11:05:59;5.07;;;2.25;;
80748;SDS011;70145;53.746;9.970;2023-12-14T11:08:25;3.28;;;1.85;;
80748;SDS011;70145;53.746;9.970;2023-12-14T11:10:54;4.80;;;2.20;;
80748;SDS011;70145;53.746;9.970;2023-12-14T11:13:35;4.00;;;2.25;;
80748;SDS011;70145;53.746;9.970;2023-12-14T11:16:01;4.63;;;2.17;;
80748;SDS011;70145;53.746;9.970;2023-12-14T11:18:26;3.37;;;1.93;;
80748;SDS011;70145;53.746;9.970;2023-12-14T11:20:59;5.63;;;2.42;;
80748;SDS011;70145;53.746;9.970;2023-12-14T11:23:26;5.65;;;2.38;;
80748;SDS011;70145;53.746;9.970;2023-12-14T11:26:02;6.28;;;2.70;;
80748;SDS011;70145;53.746;9.970;2023-12-14T11:28:36;4.70;;;2.22;;
80748;SDS011;70145;53.746;9.970;2023-12-14T11:31:11;3.83;;;2.13;;
80748;SDS011;70145;53.746;9.970;2023-12-14T11:33:37;3.88;;;2.70;;
80748;SDS011;70145;53.746;9.970;2023-12-14T11:36:03;6.28;;;2.35;;
80748;SDS011;70145;53.746;9.970;2023-12-14T11:38:29;5.03;;;2.47;;
80748;SDS011;70145;53.746;9.970;2023-12-14T11:40:55;6.03;;;2.60;;
80748;SDS011;70145;53.746;9.970;2023-12-14T11:43:20;6.68;;;2.60;;
80748;SDS011;70145;53.746;9.970;2023-12-14T11:45:46;4.68;;;2.65;;
80748;SDS011;70145;53.746;9.970;2023-12-14T11:48:12;7.85;;;3.22;;
80748;SDS011;70145;53.746;9.970;2023-12-14T11:50:38;2.80;;;1.92;;
80748;SDS011;70145;53.746;9.970;2023-12-14T11:53:08;4.55;;;2.58;;
80748;SDS011;70145;53.746;9.970;2023-12-14T11:55:34;4.68;;;2.85;;
80748;SDS011;70145;53.746;9.970;2023-12-14T11:58:00;7.50;;;3.10;;
80748;SDS011;70145;53.746;9.970;2023-12-14T12:00:26;4.57;;;2.13;;
80748;SDS011;70145;53.746;9.970;2023-12-14T12:03:06;4.55;;;2.58;;
80748;SDS011;70145;53.746;9.970;2023-12-14T12:05:44;4.65;;;2.95;;
80748;SDS011;70145;53.746;9.970;2023-12-14T12:08:11;4.43;;;2.55;;
80748;SDS011;70145;53.746;9.970;2023-12-14T12:10:38;5.55;;;2.70;;
80748;SDS011;70145;53.746;9.970;2023-12-14T12:13:05;4.80;;;2.67;;
80748;SDS011;70145;53.746;9.970;2023-12-14T12:15:32;7.32;;;2.85;;
80748;SDS011;70145;53.746;9.970;2023-12-14T12:18:02;4.38;;;2.53;;
80748;SDS011;70145;53.746;9.970;2023-12-14T12:20:47;5.50;;;2.35;;
80748;SDS011;70145;53.746;9.970;2023-12-14T12:23:12;4.60;;;2.70;;
80748;SDS011;70145;53.746;9.970;2023-12-14T12:25:38;5.70;;;2.35;;
80748;SDS011;70145;53.746;9.970;2023-12-14T12:28:03;4.10;;;2.13;;
80748;SDS011;70145;53.746;9.970;2023-12-14T12:30:29;4.32;;;2.60;;
80748;SDS011;70145;53.746;9.970;2023-12-14T12:32:54;4.10;;;1.97;;
80748;SDS011;70145;53.746;9.970;2023-12-14T12:35:23;4.85;;;2.30;;
80748;SDS011;70145;53.746;9.970;2023-12-14T12:37:49;6.65;;;2.95;;
80748;SDS011;70145;53.746;9.970;2023-12-14T12:40:18;3.60;;;2.30;;
80748;SDS011;70145;53.746;9.970;2023-12-14T12:42:45;5.07;;;2.38;;
80748;SDS011;70145;53.746;9.970;2023-12-14T12:45:13;5.80;;;2.30;;
80748;SDS011;70145;53.746;9.970;2023-12-14T12:47:38;4.32;;;2.33;;
80748;SDS011;70145;53.746;9.970;2023-12-14T12:50:04;4.70;;;2.40;;
80748;SDS011;70145;53.746;9.970;2023-12-14T12:52:32;6.32;;;2.67;;
80748;SDS011;70145;53.746;9.970;2023-12-14T12:54:57;4.17;;;2.50;;
80748;SDS011;70145;53.746;9.970;2023-12-14T12:57:22;3.83;;;2.37;;
80748;SDS011;70145;53.746;9.970;2023-12-14T12:59:48;4.30;;;2.37;;
80748;SDS011;70145;53.746;9.970;2023-12-14T13:02:13;5.72;;;2.30;;
80748;SDS011;70145;53.746;9.970;2023-12-14T13:04:39;4.45;;;2.55;;
80748;SDS011;70145;53.746;9.970;2023-12-14T13:07:04;3.60;;;2.47;;
80748;SDS011;70145;53.746;9.970;2023-12-14T13:09:30;4.67;;;2.10;;
80748;SDS011;70145;53.746;9.970;2023-12-14T13:11:55;2.78;;;1.83;;
80748;SDS011;70145;53.746;9.970;2023-12-14T13:14:20;4.47;;;1.83;;
80748;SDS011;70145;53.746;9.970;2023-12-14T13:16:46;2.60;;;1.77;;
80748;SDS011;70145;53.746;9.970;2023-12-14T13:19:12;3.15;;;2.03;;
80748;SDS011;70145;53.746;9.970;2023-12-14T13:21:38;5.28;;;1.90;;
80748;SDS011;70145;53.746;9.970;2023-12-14T13:24:04;4.55;;;2.17;;
80748;SDS011;70145;53.746;9.970;2023-12-14T13:26:29;4.80;;;2.00;;
80748;SDS011;70145;53.746;9.970;2023-12-14T13:28:54;4.47;;;1.83;;
80748;SDS011;70145;53.746;9.970;2023-12-14T13:31:20;4.05;;;1.88;;
80748;SDS011;70145;53.746;9.970;2023-12-14T13:33:46;4.53;;;2.28;;
80748;SDS011;70145;53.746;9.970;2023-12-14T13:36:12;3.50;;;2.28;;
80748;SDS011;70145;53.746;9.970;2023-12-14T13:38:39;4.78;;;1.88;;
80748;SDS011;70145;53.746;9.970;2023-12-14T13:41:05;4.85;;;2.30;;
80748;SDS011;70145;53.746;9.970;2023-12-14T13:43:30;4.10;;;1.80;;
80748;SDS011;70145;53.746;9.970;2023-12-14T13:45:56;8.63;;;2.72;;
80748;SDS011;70145;53.746;9.970;2023-12-14T13:48:24;4.72;;;2.42;;
80748;SDS011;70145;53.746;9.970;2023-12-14T13:50:50;5.18;;;2.33;;
80748;SDS011;70145;53.746;9.970;2023-12-14T13:53:15;4.85;;;1.95;;
80748;SDS011;70145;53.746;9.970;2023-12-14T13:55:41;5.30;;;2.35;;
80748;SDS011;70145;53.746;9.970;2023-12-14T13:58:06;5.65;;;2.42;;
80748;SDS011;70145;53.746;9.970;2023-12-14T14:00:31;5.27;;;1.93;;
80748;SDS011;70145;53.746;9.970;2023-12-14T14:02:57;3.67;;;2.15;;
80748;SDS011;70145;53.746;9.970;2023-12-14T14:05:23;2.97;;;2.00;;
80748;SDS011;70145;53.746;9.970;2023-12-14T14:07:48;3.08;;;1.83;;
80748;SDS011;70145;53.746;9.970;2023-12-14T14:10:14;4.50;;;2.13;;
80748;SDS011;70145;53.746;9.970;2023-12-14T14:12:39;3.25;;;1.67;;
80748;SDS011;70145;53.746;9.970;2023-12-14T14:15:05;4.00;;;2.00;;
80748;SDS011;70145;53.746;9.970;2023-12-14T14:17:30;2.55;;;1.65;;
80748;SDS011;70145;53.746;9.970;2023-12-14T14:19:56;3.10;;;1.80;;
80748;SDS011;70145;53.746;9.970;2023-12-14T14:22:21;3.27;;;2.10;;
80748;SDS011;70145;53.746;9.970;2023-12-14T14:24:47;3.35;;;1.95;;
80748;SDS011;70145;53.746;9.970;2023-12-14T14:27:12;3.20;;;1.90;;
80748;SDS011;70145;53.746;9.970;2023-12-14T14:29:37;2.60;;;1.83;;
80748;SDS011;70145;53.746;9.970;2023-12-14T14:32:03;3.63;;;1.70;;
80748;SDS011;70145;53.746;9.970;2023-12-14T14:34:28;2.53;;;1.70;;
80748;SDS011;70145;53.746;9.970;2023-12-14T14:36:53;3.50;;;1.63;;
80748;SDS011;70145;53.746;9.970;2023-12-14T14:39:19;3.63;;;2.00;;
80748;SDS011;70145;53.746;9.970;2023-12-14T14:41:44;3.80;;;2.17;;